Time,TemperatureF,DewpointF,PressureIn,WindDirection,WindDirectionDegrees,WindSpeedMPH,WindSpeedGustMPH,Humidity,HourlyPrecipIn,Conditions,Clouds,dailyrainin,SoftwareType,DateUTC
2013-07-25 00:12:00,83.0,-99.9,30.01,West,271,10.0,13.0,-999,-99.99,,,-99.99,,2013-07-25 04:12:00,
2013-07-25 00:22:00,83.0,-99.9,30.00,WNW,282,11.0,14.0,-999,-99.99,,,-99.99,,2013-07-25 04:22:00,
2013-07-25 00:33:00,83.0,-99.9,30.00,West,276,12.0,14.0,-999,-99.99,,,-99.99,,2013-07-25 04:33:00,
2013-07-25 00:43:00,83.0,-99.9,30.00,WNW,292,11.0,14.0,-999,-99.99,,,-99.99,,2013-07-25 04:43:00,
2013-07-25 01:12:00,83.0,-99.9,29.99,West,271,11.0,13.0,-999,-99.99,,,-99.99,,2013-07-25 05:12:00,
2013-07-25 01:22:00,83.0,-99.9,30.00,West,271,10.0,13.0,-999,-99.99,,,-99.99,,2013-07-25 05:22:00,
2013-07-25 01:43:00,83.0,-99.9,30.00,WNW,289,11.0,13.0,-999,-99.99,,,-99.99,,2013-07-25 05:43:00,
2013-07-25 02:02:00,83.0,-99.9,29.99,West,281,11.0,14.0,-999,-99.99,,,-99.99,,2013-07-25 06:02:00,
2013-07-25 02:32:00,83.0,-99.9,29.98,WSW,256,12.0,13.0,-999,-99.99,,,-99.99,,2013-07-25 06:32:00,
2013-07-25 02:42:00,83.0,-99.9,29.98,WSW,258,12.0,14.0,-999,-99.99,,,-99.99,,2013-07-25 06:42:00,
2013-07-25 02:52:00,83.0,-99.9,29.98,West,265,11.0,14.0,-999,-99.99,,,-99.99,,2013-07-25 06:52:00,
2013-07-25 03:02:00,83.0,-99.9,29.97,West,266,11.0,14.0,-999,-99.99,,,-99.99,,2013-07-25 07:02:00,
2013-07-25 03:12:00,83.0,-99.9,29.97,West,269,10.0,13.0,-999,-99.99,,,-99.99,,2013-07-25 07:12:00,
2013-07-25 03:22:00,83.0,-99.9,29.97,West,264,12.0,15.0,-999,-99.99,,,-99.99,,2013-07-25 07:22:00,
2013-07-25 03:33:00,83.0,-99.9,29.97,West,265,10.0,16.0,-999,-99.99,,,-99.99,,2013-07-25 07:33:00,
2013-07-25 03:43:00,83.0,-99.9,29.97,WSW,256,12.0,14.0,-999,-99.99,,,-99.99,,2013-07-25 07:43:00,
2013-07-25 04:02:00,83.0,-99.9,29.96,West,269,11.0,15.0,-999,-99.99,,,-99.99,,2013-07-25 08:02:00,
2013-07-25 04:12:00,83.0,-99.9,29.96,WSW,254,13.0,17.0,-999,-99.99,,,-99.99,,2013-07-25 08:12:00,
2013-07-25 04:52:00,82.0,-99.9,29.96,WSW,249,13.0,17.0,-999,-99.99,,,-99.99,,2013-07-25 08:52:00,
2013-07-25 05:02:00,83.0,-99.9,29.96,West,278,12.0,15.0,-999,-99.99,,,-99.99,,2013-07-25 09:02:00,
2013-07-25 05:12:00,82.0,-99.9,29.96,WSW,255,15.0,17.0,-999,-99.99,,,-99.99,,2013-07-25 09:12:00,
2013-07-25 05:43:00,82.0,-99.9,29.96,WSW,247,13.0,16.0,-999,-99.99,,,-99.99,,2013-07-25 09:43:00,
2013-07-25 06:03:00,83.0,-99.9,29.96,West,262,12.0,15.0,-999,-99.99,,,-99.99,,2013-07-25 10:03:00,
2013-07-25 06:22:00,82.0,-99.9,29.96,West,260,11.0,15.0,-999,-99.99,,,-99.99,,2013-07-25 10:22:00,
2013-07-25 06:32:00,82.0,-99.9,29.97,WSW,256,13.0,16.0,-999,-99.99,,,-99.99,,2013-07-25 10:32:00,
2013-07-25 06:43:00,82.0,-99.9,29.97,WSW,253,14.0,16.0,-999,-99.99,,,-99.99,,2013-07-25 10:43:00,
2013-07-25 07:12:00,82.0,-99.9,29.98,West,267,12.0,16.0,-999,-99.99,,,-99.99,,2013-07-25 11:12:00,
2013-07-25 07:22:00,82.0,-99.9,29.98,West,268,10.0,13.0,-999,-99.99,,,-99.99,,2013-07-25 11:22:00,
2013-07-25 07:32:00,82.0,-99.9,29.98,West,268,10.0,13.0,-999,-99.99,,,-99.99,,2013-07-25 11:32:00,
2013-07-25 07:43:00,83.0,-99.9,29.98,West,262,12.0,17.0,-999,-99.99,,,-99.99,,2013-07-25 11:43:00,
2013-07-25 08:12:00,83.0,-99.9,29.99,West,267,12.0,16.0,-999,-99.99,,,-99.99,,2013-07-25 12:12:00,
2013-07-25 08:23:00,83.0,-99.9,30.00,WSW,258,12.0,15.0,-999,-99.99,,,-99.99,,2013-07-25 12:23:00,
2013-07-25 08:45:00,83.0,-99.9,30.01,West,273,11.0,15.0,-999,-99.99,,,-99.99,,2013-07-25 12:45:00,
2013-07-25 09:12:00,83.0,-99.9,30.01,WNW,289,13.0,15.0,-999,-99.99,,,-99.99,,2013-07-25 13:12:00,
2013-07-25 09:22:00,83.0,-99.9,30.02,WNW,296,13.0,16.0,-999,-99.99,,,-99.99,,2013-07-25 13:22:00,
2013-07-25 09:43:00,84.0,-99.9,30.02,West,277,10.0,13.0,-999,-99.99,,,-99.99,,2013-07-25 13:43:00,
2013-07-25 10:00:00,84.0,-99.9,30.04,West,281,9.0,13.0,-999,-99.99,,,-99.99,,2013-07-25 14:00:00,
2013-07-25 10:12:00,83.0,-99.9,30.03,WNW,294,11.0,13.0,-999,-99.99,,,-99.99,,2013-07-25 14:12:00,
2013-07-25 10:22:00,84.0,-99.9,30.03,West,271,11.0,14.0,-999,-99.99,,,-99.99,,2013-07-25 14:22:00,
2013-07-25 10:33:00,84.0,-99.9,30.04,West,281,9.0,13.0,-999,-99.99,,,-99.99,,2013-07-25 14:33:00,
2013-07-25 10:43:00,84.0,-99.9,30.04,West,281,9.0,13.0,-999,-99.99,,,-99.99,,2013-07-25 14:43:00,
2013-07-25 10:53:00,84.0,-99.9,30.04,West,281,9.0,13.0,-999,-99.99,,,-99.99,,2013-07-25 14:53:00,
2013-07-25 11:23:00,84.0,-99.9,30.06,WNW,285,11.0,15.0,-999,-99.99,,,-99.99,,2013-07-25 15:23:00,
2013-07-25 11:44:00,84.0,-99.9,30.07,WNW,292,11.0,15.0,-999,-99.99,,,-99.99,,2013-07-25 15:44:00,
2013-07-25 12:02:00,84.0,-99.9,30.07,WNW,289,12.0,15.0,-999,-99.99,,,-99.99,,2013-07-25 16:02:00,
2013-07-25 13:12:00,84.0,-99.9,30.07,WNW,293,12.0,16.0,-999,-99.99,,,-99.99,,2013-07-25 17:12:00,
2013-07-25 13:22:00,84.0,-99.9,30.07,WNW,293,13.0,16.0,-999,-99.99,,,-99.99,,2013-07-25 17:22:00,
2013-07-25 13:43:00,84.0,-99.9,30.07,WNW,296,13.0,15.0,-999,-99.99,,,-99.99,,2013-07-25 17:43:00,
2013-07-25 14:12:00,84.0,-99.9,30.07,WNW,293,13.0,17.0,-999,-99.99,,,-99.99,,2013-07-25 18:12:00,
2013-07-25 14:22:00,84.0,-99.9,30.07,WNW,296,14.0,17.0,-999,-99.99,,,-99.99,,2013-07-25 18:22:00,
2013-07-25 14:34:00,84.0,-99.9,30.06,WNW,300,14.0,16.0,-999,-99.99,,,-99.99,,2013-07-25 18:34:00,
2013-07-25 14:43:00,84.0,-99.9,30.06,WNW,291,14.0,16.0,-999,-99.99,,,-99.99,,2013-07-25 18:43:00,
2013-07-25 15:03:00,84.0,-99.9,30.06,WNW,293,14.0,16.0,-999,-99.99,,,-99.99,,2013-07-25 19:03:00,
2013-07-25 15:43:00,84.0,-99.9,30.05,WNW,289,14.0,17.0,-999,-99.99,,,-99.99,,2013-07-25 19:43:00,
2013-07-25 16:03:00,84.0,-99.9,30.05,WNW,297,15.0,18.0,-999,-99.99,,,-99.99,,2013-07-25 20:03:00,
2013-07-25 17:03:00,84.0,-99.9,30.05,WNW,293,15.0,17.0,-999,-99.99,,,-99.99,,2013-07-25 21:03:00,
2013-07-25 17:13:00,84.0,-99.9,30.04,WNW,292,15.0,17.0,-999,-99.99,,,-99.99,,2013-07-25 21:13:00,
2013-07-25 17:22:00,85.0,-99.9,30.05,WNW,289,14.0,18.0,-999,-99.99,,,-99.99,,2013-07-25 21:22:00,
2013-07-25 17:33:00,84.0,-99.9,30.04,NW,305,16.0,18.0,-999,-99.99,,,-99.99,,2013-07-25 21:33:00,
2013-07-25 17:44:00,84.0,-99.9,30.04,WNW,292,14.0,16.0,-999,-99.99,,,-99.99,,2013-07-25 21:44:00,
2013-07-25 18:03:00,84.0,-99.9,30.04,WNW,291,14.0,17.0,-999,-99.99,,,-99.99,,2013-07-25 22:03:00,
2013-07-25 19:12:00,84.0,-99.9,30.05,NW,304,15.0,17.0,-999,-99.99,,,-99.99,,2013-07-25 23:12:00,
2013-07-25 20:02:00,84.0,-99.9,30.05,West,279,12.0,14.0,-999,-99.99,,,-99.99,,2013-07-26 00:02:00,
2013-07-25 20:12:00,84.0,-99.9,30.05,WNW,299,11.0,14.0,-999,-99.99,,,-99.99,,2013-07-26 00:12:00,
2013-07-25 20:33:00,84.0,-99.9,30.04,West,276,10.0,13.0,-999,-99.99,,,-99.99,,2013-07-26 00:33:00,
2013-07-25 20:43:00,83.0,-99.9,30.04,West,281,10.0,13.0,-999,-99.99,,,-99.99,,2013-07-26 00:43:00,
2013-07-25 21:02:00,84.0,-99.9,30.04,WNW,284,12.0,14.0,-999,-99.99,,,-99.99,,2013-07-26 01:02:00,
2013-07-25 21:22:00,84.0,-99.9,30.05,West,272,10.0,13.0,-999,-99.99,,,-99.99,,2013-07-26 01:22:00,
2013-07-25 22:02:00,83.0,-99.9,30.05,West,261,13.0,15.0,-999,-99.99,,,-99.99,,2013-07-26 02:02:00,
2013-07-25 22:43:00,83.0,-99.9,30.05,WSW,246,13.0,15.0,-999,-99.99,,,-99.99,,2013-07-26 02:43:00,
2013-07-25 23:02:00,83.0,-99.9,30.05,WSW,243,13.0,16.0,-999,-99.99,,,-99.99,,2013-07-26 03:02:00,
2013-07-25 23:12:00,83.0,-99.9,30.05,WSW,252,13.0,16.0,-999,-99.99,,,-99.99,,2013-07-26 03:12:00,
2013-07-25 23:22:00,83.0,-99.9,30.05,WSW,253,14.0,16.0,-999,-99.99,,,-99.99,,2013-07-26 03:22:00,
2013-07-25 23:44:00,83.0,-99.9,30.06,WSW,254,14.0,17.0,-999,-99.99,,,-99.99,,2013-07-26 03:44:00,